Time;durP1;ratioP1;P1;durP2;ratioP2;P2;SDS_P1;SDS_P2;PMS_P1;PMS_P2;Temp;Humidity;BMP_temperature;BMP_pressure;BME280_temperature;BME280_humidity;BME280_pressure;Samples;Min_cycle;Max_cycle;Signal;HPM_P1;HPM_P2
2023/02/26 00:00:14;;;;;;;0.80;0.55;;;4.30;63.40;;;;;;5046657;28;20052;-60
2023/02/26 00:02:46;;;;;;;1.15;0.93;;;4.30;63.40;;;;;;5049381;28;20032;-60
2023/02/26 00:05:13;;;;;;;5.25;1.25;;;4.20;63.40;;;;;;5025064;28;20445;-59
2023/02/26 00:07:39;;;;;;;1.25;0.75;;;4.20;63.70;;;;;;5052458;28;20751;-60
2023/02/26 00:10:06;;;;;;;1.10;0.75;;;4.10;63.80;;;;;;5055413;28;20239;-60
2023/02/26 00:12:33;;;;;;;7.88;1.17;;;4.10;64.00;;;;;;5042922;28;20026;-60
2023/02/26 00:14:59;;;;;;;3.15;1.00;;;4.00;64.20;;;;;;5049827;28;20033;-60
2023/02/26 00:17:37;;;;;;;1.17;0.60;;;4.00;64.30;;;;;;5043596;28;20025;-60
2023/02/26 00:20:04;;;;;;;1.23;0.90;;;4.10;64.30;;;;;;5037695;28;20361;-60
2023/02/26 00:22:30;;;;;;;1.90;1.08;;;4.10;64.50;;;;;;5045199;28;20415;-60
2023/02/26 00:24:55;;;;;;;1.30;1.13;;;4.10;64.50;;;;;;5049942;28;20033;-64
2023/02/26 00:27:21;;;;;;;1.08;0.57;;;4.00;64.50;;;;;;5030027;28;20491;-59
2023/02/26 00:29:47;;;;;;;2.42;1.30;;;4.00;64.60;;;;;;5048063;28;20064;-59
2023/02/26 00:32:13;;;;;;;1.50;1.02;;;4.00;64.70;;;;;;5046009;28;20040;-60
2023/02/26 00:34:40;;;;;;;1.73;0.80;;;4.00;64.70;;;;;;5047352;28;20029;-60
2023/02/26 00:37:05;;;;;;;1.50;0.65;;;4.00;64.70;;;;;;5045789;28;20033;-60
2023/02/26 00:39:43;;;;;;;4.32;1.33;;;4.00;64.80;;;;;;5048044;28;20039;-60
2023/02/26 00:42:09;;;;;;;2.47;1.20;;;4.00;64.80;;;;;;5043653;28;20044;-60
2023/02/26 00:44:35;;;;;;;2.05;1.00;;;3.90;64.80;;;;;;5048927;28;20029;-60
2023/02/26 00:47:38;;;;;;;0.98;0.73;;;4.00;64.90;;;;;;5051473;28;20109;-60
2023/02/26 00:50:21;;;;;;;2.00;0.95;;;3.90;64.80;;;;;;5031295;28;20017;-60
2023/02/26 00:52:55;;;;;;;1.42;0.95;;;3.90;65.00;;;;;;5053196;28;20102;-60
2023/02/26 00:55:21;;;;;;;1.30;0.70;;;3.80;65.10;;;;;;5044755;28;20568;-60
2023/02/26 00:57:47;;;;;;;6.65;1.10;;;3.70;65.20;;;;;;5040829;28;20108;-60
2023/02/26 01:00:13;;;;;;;1.08;0.70;;;3.70;65.20;;;;;;5049675;28;20044;-65
2023/02/26 01:02:40;;;;;;;3.42;1.10;;;3.70;65.20;;;;;;5051362;28;20032;-60
2023/02/26 01:05:06;;;;;;;1.13;0.90;;;3.60;65.30;;;;;;5044888;28;20546;-60
2023/02/26 01:08:10;;;;;;;1.23;0.88;;;3.60;65.40;;;;;;5043839;28;20048;-60
2023/02/26 01:10:36;;;;;;;10.90;1.25;;;3.60;65.20;;;;;;5042464;28;20025;-60
2023/02/26 01:13:02;;;;;;;0.95;0.85;;;3.50;65.30;;;;;;5023170;28;20044;-60
2023/02/26 01:15:28;;;;;;;2.17;0.80;;;3.50;65.40;;;;;;5048820;28;20119;-61
2023/02/26 01:17:57;;;;;;;2.25;1.00;;;3.50;65.40;;;;;;5049704;28;20024;-65
2023/02/26 01:20:27;;;;;;;1.17;0.70;;;3.60;65.40;;;;;;5047962;28;20583;-60
2023/02/26 01:23:03;;;;;;;0.32;0.32;;;3.60;65.40;;;;;;5031006;28;20029;-60
2023/02/26 01:25:41;;;;;;;2.67;1.13;;;3.50;65.40;;;;;;5048668;28;20434;-65
2023/02/26 01:28:08;;;;;;;4.78;1.17;;;3.60;65.40;;;;;;5045709;28;20025;-60
2023/02/26 01:30:34;;;;;;;1.23;0.57;;;3.60;65.40;;;;;;5043774;28;20384;-60
2023/02/26 01:33:09;;;;;;;1.10;0.95;;;3.60;65.50;;;;;;5031082;28;20549;-60
2023/02/26 01:35:53;;;;;;;1.10;0.90;;;3.60;65.40;;;;;;5048864;28;20384;-60
2023/02/26 01:38:46;;;;;;;0.60;0.60;;;3.50;65.40;;;;;;5049064;28;20392;-60
2023/02/26 01:41:35;;;;;;;1.23;0.70;;;3.50;65.60;;;;;;5045896;28;20055;-61
2023/02/26 01:44:06;;;;;;;2.65;1.13;;;3.40;65.50;;;;;;5039267;28;20046;-61
2023/02/26 01:47:03;;;;;;;2.53;0.73;;;3.40;65.50;;;;;;5048056;28;20021;-60
2023/02/26 01:49:30;;;;;;;1.15;0.80;;;3.40;65.30;;;;;;5043027;28;20396;-61
2023/02/26 01:52:02;;;;;;;3.55;0.80;;;3.40;65.40;;;;;;5044040;28;20033;-61
2023/02/26 01:54:32;;;;;;;1.10;0.60;;;3.40;65.30;;;;;;5044727;28;20091;-61
2023/02/26 01:57:10;;;;;;;1.90;1.02;;;3.40;65.30;;;;;;5038318;28;20025;-60
2023/02/26 01:59:42;;;;;;;1.25;0.95;;;3.40;65.30;;;;;;5046296;28;20032;-61
2023/02/26 02:02:11;;;;;;;4.07;0.95;;;3.30;65.20;;;;;;5046764;28;21303;-61
2023/02/26 02:04:39;;;;;;;2.72;0.90;;;3.30;65.40;;;;;;5046080;28;20033;-65
2023/02/26 02:07:06;;;;;;;1.33;0.70;;;3.30;65.40;;;;;;5049318;28;20500;-60
2023/02/26 02:09:32;;;;;;;13.75;1.15;;;3.30;65.40;;;;;;5021774;28;20480;-59
2023/02/26 02:12:03;;;;;;;4.55;0.82;;;3.30;65.50;;;;;;5047420;28;20035;-59
2023/02/26 02:14:45;;;;;;;1.63;1.30;;;3.20;65.50;;;;;;5041871;28;20029;-59
2023/02/26 02:17:48;;;;;;;0.68;0.65;;;3.20;65.60;;;;;;5043892;28;20057;-60
2023/02/26 02:20:14;;;;;;;;;;;3.20;65.60;;;;;;5048564;28;20043;-61
2023/02/26 02:23:00;;;;;;;3.63;1.55;;;3.10;65.80;;;;;;5043050;28;20284;-61
2023/02/26 02:25:53;;;;;;;2.10;0.75;;;3.00;66.00;;;;;;5036482;28;20579;-64
2023/02/26 02:28:27;;;;;;;1.02;0.80;;;3.00;65.90;;;;;;5045295;28;20036;-65
2023/02/26 02:31:10;;;;;;;1.27;0.68;;;3.00;66.00;;;;;;5038424;28;20388;-60
2023/02/26 02:33:43;;;;;;;1.77;0.60;;;3.00;66.00;;;;;;5037403;28;20057;-60
2023/02/26 02:36:34;;;;;;;5.90;1.08;;;2.90;66.00;;;;;;5038774;28;20499;-61
2023/02/26 02:39:11;;;;;;;1.60;0.82;;;2.90;66.00;;;;;;5043925;28;20021;-60
2023/02/26 02:41:44;;;;;;;2.70;0.93;;;2.80;66.20;;;;;;5040899;28;20029;-60
2023/02/26 02:44:12;;;;;;;;;;;2.80;66.30;;;;;;5037979;28;20032;-60
2023/02/26 02:46:40;;;;;;;2.38;0.77;;;2.80;66.40;;;;;;5031479;28;19905;-60
2023/02/26 02:49:11;;;;;;;1.98;0.85;;;2.70;66.50;;;;;;5042493;28;20384;-60
2023/02/26 02:51:45;;;;;;;3.80;0.68;;;2.70;66.40;;;;;;5047865;28;20028;-64
2023/02/26 02:54:34;;;;;;;2.90;0.68;;;2.70;66.40;;;;;;5047364;28;20033;-65
2023/02/26 02:57:05;;;;;;;1.38;0.90;;;2.70;66.50;;;;;;5019365;28;20396;-66
2023/02/26 02:59:32;;;;;;;0.82;0.70;;;2.70;66.50;;;;;;5019765;28;20026;-65
2023/02/26 03:02:09;;;;;;;0.98;0.70;;;2.70;66.60;;;;;;5048563;28;20021;-65
2023/02/26 03:04:35;;;;;;;0.75;0.60;;;2.70;66.50;;;;;;5044251;28;20051;-65
2023/02/26 03:07:01;;;;;;;1.55;0.80;;;2.70;66.40;;;;;;5047704;28;20060;-64
2023/02/26 03:09:26;;;;;;;1.85;0.80;;;2.70;66.40;;;;;;5052816;28;20460;-65
2023/02/26 03:11:52;;;;;;;0.98;0.80;;;2.70;66.40;;;;;;5049053;28;20032;-65
2023/02/26 03:14:18;;;;;;;0.57;0.52;;;2.60;66.30;;;;;;5049286;28;20064;-65
2023/02/26 03:17:10;;;;;;;3.97;1.30;;;2.60;66.40;;;;;;5049593;28;20032;-65
2023/02/26 03:19:39;;;;;;;1.50;0.90;;;2.60;66.40;;;;;;5050527;28;20391;-65
2023/02/26 03:22:10;;;;;;;0.95;0.82;;;2.60;66.40;;;;;;5050384;28;20025;-65
2023/02/26 03:24:55;;;;;;;2.65;0.63;;;2.60;66.40;;;;;;5049767;28;20028;-65
2023/02/26 03:27:27;;;;;;;3.28;0.70;;;2.60;66.30;;;;;;5044584;28;20155;-65
2023/02/26 03:30:00;;;;;;;1.07;0.60;;;2.50;66.20;;;;;;5047253;28;20507;-65
2023/02/26 03:32:31;;;;;;;1.77;1.15;;;2.50;66.20;;;;;;5052297;28;20023;-63
2023/02/26 03:35:21;;;;;;;0.68;0.65;;;2.50;66.20;;;;;;5049843;28;20037;-65
2023/02/26 03:37:54;;;;;;;1.10;0.60;;;2.50;66.20;;;;;;5048488;28;20097;-63
2023/02/26 03:40:29;;;;;;;0.88;0.82;;;2.50;66.20;;;;;;5031800;28;20021;-63
2023/02/26 03:43:17;;;;;;;3.58;0.77;;;2.50;66.00;;;;;;5028072;28;20032;-66
2023/02/26 03:45:47;;;;;;;1.58;0.70;;;2.50;66.00;;;;;;5029795;28;20037;-66
2023/02/26 03:48:17;;;;;;;0.95;0.43;;;2.50;66.50;;;;;;5045350;28;20052;-66
2023/02/26 03:50:48;;;;;;;0.60;0.30;;;2.50;65.90;;;;;;5049321;28;20028;-66
2023/02/26 03:53:25;;;;;;;11.32;0.60;;;2.50;65.80;;;;;;5061924;28;20041;-66
2023/02/26 03:56:20;;;;;;;1.85;0.50;;;2.40;65.70;;;;;;5050955;28;20106;-66
2023/02/26 03:58:46;;;;;;;0.95;0.50;;;2.40;65.70;;;;;;5043032;28;20040;-66
2023/02/26 04:01:24;;;;;;;2.88;0.75;;;2.40;65.60;;;;;;5049835;28;20140;-66
2023/02/26 04:04:05;;;;;;;1.15;0.65;;;2.40;65.30;;;;;;5031376;28;20037;-66
2023/02/26 04:06:33;;;;;;;1.10;0.93;;;2.40;65.40;;;;;;5049200;28;20496;-65
2023/02/26 04:08:58;;;;;;;2.17;0.68;;;2.30;65.50;;;;;;5033075;28;20095;-65
2023/02/26 04:11:25;;;;;;;1.10;0.68;;;2.30;65.50;;;;;;5045052;28;20033;-65
2023/02/26 04:13:51;;;;;;;0.82;0.70;;;2.30;65.60;;;;;;5039628;28;20032;-61
2023/02/26 04:16:18;;;;;;;1.35;0.60;;;2.20;65.50;;;;;;5042236;28;20048;-61
2023/02/26 04:18:43;;;;;;;0.52;0.52;;;2.20;65.40;;;;;;5029350;28;20021;-63
2023/02/26 04:21:20;;;;;;;1.65;0.93;;;2.20;65.40;;;;;;5044602;28;20040;-65
2023/02/26 04:23:46;;;;;;;0.70;0.60;;;2.20;65.40;;;;;;5044690;28;20017;-65
2023/02/26 04:26:12;;;;;;;0.57;0.52;;;2.20;65.50;;;;;;5022683;28;20131;-65
2023/02/26 04:28:38;;;;;;;9.32;0.60;;;2.20;65.50;;;;;;5047109;28;20730;-65
2023/02/26 04:31:05;;;;;;;1.20;0.73;;;2.20;65.70;;;;;;5029293;28;20025;-66
2023/02/26 04:33:32;;;;;;;0.25;0.22;;;2.10;65.70;;;;;;5045064;28;20009;-66
2023/02/26 04:35:58;;;;;;;0.40;0.32;;;2.10;65.70;;;;;;5044152;28;20029;-67
2023/02/26 04:38:24;;;;;;;4.07;0.63;;;2.10;65.80;;;;;;5048863;28;20524;-67
2023/02/26 04:40:51;;;;;;;0.70;0.50;;;2.10;66.00;;;;;;5048226;28;20419;-67
2023/02/26 04:43:17;;;;;;;1.67;0.55;;;2.10;66.00;;;;;;5044038;28;20030;-63
2023/02/26 04:45:46;;;;;;;1.70;0.77;;;2.00;65.90;;;;;;5041953;28;20036;-61
2023/02/26 04:48:13;;;;;;;1.63;1.00;;;2.00;66.00;;;;;;5043040;28;20460;-61
2023/02/26 04:50:40;;;;;;;1.40;0.68;;;2.00;66.00;;;;;;5046210;28;20030;-62
2023/02/26 04:53:06;;;;;;;1.17;0.73;;;1.90;66.00;;;;;;5043016;28;20029;-62
2023/02/26 04:55:34;;;;;;;1.75;0.65;;;1.90;66.10;;;;;;5044628;28;20024;-61
2023/02/26 04:58:00;;;;;;;1.00;0.70;;;1.90;66.20;;;;;;5034902;28;20068;-62
2023/02/26 05:00:26;;;;;;;1.08;0.50;;;1.90;66.10;;;;;;5038098;28;20485;-61
2023/02/26 05:02:52;;;;;;;0.75;0.50;;;1.90;66.10;;;;;;5034352;28;20104;-63
2023/02/26 05:05:17;;;;;;;1.48;0.63;;;1.80;66.00;;;;;;5042755;28;20069;-59
2023/02/26 05:07:43;;;;;;;0.63;0.40;;;1.90;66.10;;;;;;5046340;28;20492;-60
2023/02/26 05:10:10;;;;;;;2.90;0.57;;;1.80;66.00;;;;;;5038661;28;20049;-66
2023/02/26 05:12:36;;;;;;;0.52;0.47;;;1.80;65.90;;;;;;5037530;28;20746;-65
2023/02/26 05:15:02;;;;;;;0.90;0.38;;;1.80;65.80;;;;;;5042543;28;20035;-65
2023/02/26 05:17:28;;;;;;;0.38;0.25;;;1.80;65.80;;;;;;5045701;28;20056;-66
2023/02/26 05:19:54;;;;;;;3.30;0.57;;;1.80;65.80;;;;;;5029587;28;20048;-60
2023/02/26 05:22:19;;;;;;;2.55;0.52;;;1.80;65.90;;;;;;5030592;28;20837;-60
2023/02/26 05:24:45;;;;;;;1.00;0.45;;;1.80;65.90;;;;;;5035880;28;20033;-61
2023/02/26 05:27:11;;;;;;;1.63;0.60;;;1.70;65.80;;;;;;5038962;28;20021;-60
2023/02/26 05:29:37;;;;;;;2.35;0.80;;;1.80;65.70;;;;;;5043548;28;20051;-60
2023/02/26 05:32:02;;;;;;;0.55;0.40;;;1.70;65.70;;;;;;5045678;28;20025;-60
2023/02/26 05:34:28;;;;;;;2.65;0.57;;;1.80;65.70;;;;;;5045390;28;20032;-60
2023/02/26 05:36:54;;;;;;;0.40;0.25;;;1.80;65.60;;;;;;5047112;28;20068;-66
2023/02/26 05:39:19;;;;;;;0.75;0.65;;;1.80;65.50;;;;;;5014659;28;20029;-66
2023/02/26 05:41:45;;;;;;;0.68;0.35;;;1.80;65.50;;;;;;5047508;28;20548;-66
2023/02/26 05:44:12;;;;;;;0.32;0.32;;;1.70;65.40;;;;;;5036021;28;20044;-66
2023/02/26 05:46:37;;;;;;;2.03;0.93;;;1.70;65.30;;;;;;5044617;28;20411;-66
2023/02/26 05:49:03;;;;;;;2.90;0.65;;;1.70;65.30;;;;;;5031212;28;20025;-66
2023/02/26 05:51:29;;;;;;;2.35;0.80;;;1.70;65.40;;;;;;5046025;28;20053;-65
2023/02/26 05:53:55;;;;;;;0.43;0.43;;;1.70;65.50;;;;;;5030863;28;20459;-66
2023/02/26 05:56:21;;;;;;;1.33;0.73;;;1.70;65.50;;;;;;5040906;28;20029;-66
2023/02/26 05:58:46;;;;;;;0.40;0.40;;;1.70;65.50;;;;;;5045751;28;20029;-66
2023/02/26 06:01:12;;;;;;;0.45;0.28;;;1.70;65.50;;;;;;5048867;28;20100;-60
2023/02/26 06:03:42;;;;;;;0.30;0.30;;;1.70;65.40;;;;;;5046822;28;20052;-60
2023/02/26 06:06:17;;;;;;;0.38;0.38;;;1.70;65.40;;;;;;5046213;28;20029;-65
2023/02/26 06:08:44;;;;;;;0.63;0.63;;;1.60;65.30;;;;;;5045090;28;20033;-66
2023/02/26 06:11:09;;;;;;;1.38;0.63;;;1.60;65.40;;;;;;5047395;28;20021;-66
2023/02/26 06:13:35;;;;;;;0.63;0.63;;;1.60;65.40;;;;;;5042749;28;20770;-66
2023/02/26 06:16:01;;;;;;;3.97;0.73;;;1.60;65.40;;;;;;5039396;28;20276;-61
2023/02/26 06:18:27;;;;;;;1.85;0.32;;;1.60;65.40;;;;;;5046935;28;20072;-61
2023/02/26 06:20:53;;;;;;;1.10;0.75;;;1.60;65.30;;;;;;5047109;28;20060;-61
2023/02/26 06:23:19;;;;;;;1.45;0.40;;;1.60;65.20;;;;;;5048550;28;20094;-60
2023/02/26 06:25:44;;;;;;;0.50;0.47;;;1.60;65.30;;;;;;5038021;28;20025;-60
2023/02/26 06:28:10;;;;;;;0.30;0.30;;;1.60;65.40;;;;;;5041334;28;20078;-61
2023/02/26 06:30:36;;;;;;;1.40;0.50;;;1.60;65.30;;;;;;5027544;28;20028;-60
2023/02/26 06:33:02;;;;;;;0.88;0.60;;;1.60;65.30;;;;;;5038876;28;20029;-60
2023/02/26 06:35:28;;;;;;;0.52;0.28;;;1.50;65.30;;;;;;5040881;28;20060;-61
2023/02/26 06:37:55;;;;;;;2.42;0.77;;;1.50;65.20;;;;;;5040713;28;20036;-60
2023/02/26 06:40:21;;;;;;;1.65;0.43;;;1.50;65.20;;;;;;5040140;28;20169;-60
2023/02/26 06:42:47;;;;;;;2.28;0.43;;;1.50;65.20;;;;;;5032507;28;20159;-60
2023/02/26 06:45:12;;;;;;;0.13;0.13;;;1.50;65.30;;;;;;5041888;28;20033;-66
2023/02/26 06:47:38;;;;;;;1.05;0.50;;;1.50;65.20;;;;;;5042074;28;20022;-66
2023/02/26 06:50:04;;;;;;;0.40;0.40;;;1.60;65.30;;;;;;5048122;28;20059;-66
2023/02/26 06:52:31;;;;;;;2.20;1.05;;;1.60;65.10;;;;;;5051625;28;20066;-66
2023/02/26 06:54:57;;;;;;;0.80;0.73;;;1.60;65.10;;;;;;5033861;28;20029;-66
2023/02/26 06:57:22;;;;;;;0.40;0.28;;;1.60;65.10;;;;;;5050626;28;20457;-66
2023/02/26 06:59:49;;;;;;;1.00;0.50;;;1.70;65.20;;;;;;5019306;28;20106;-66
2023/02/26 07:02:19;;;;;;;2.90;0.43;;;1.70;65.10;;;;;;5049570;28;20039;-61
2023/02/26 07:04:45;;;;;;;4.45;0.70;;;1.70;65.10;;;;;;5046646;28;20369;-61
2023/02/26 07:07:12;;;;;;;4.53;0.55;;;1.70;65.00;;;;;;5046822;28;20037;-61
2023/02/26 07:09:38;;;;;;;0.30;0.30;;;1.70;64.90;;;;;;5052815;28;20446;-60
2023/02/26 07:12:06;;;;;;;1.42;0.30;;;1.70;64.80;;;;;;5027254;28;20063;-65
2023/02/26 07:14:32;;;;;;;0.85;0.40;;;1.80;64.90;;;;;;5020449;28;20029;-66
2023/02/26 07:16:58;;;;;;;0.73;0.65;;;1.80;64.80;;;;;;5048436;28;20545;-65
2023/02/26 07:19:24;;;;;;;0.60;0.50;;;1.80;64.80;;;;;;5035577;28;20130;-66
2023/02/26 07:21:50;;;;;;;0.50;0.50;;;1.80;64.80;;;;;;5039228;28;20610;-66
2023/02/26 07:24:16;;;;;;;0.57;0.50;;;1.80;64.80;;;;;;5048790;28;20032;-61
2023/02/26 07:26:41;;;;;;;6.28;0.60;;;1.90;64.80;;;;;;5056385;28;20507;-60
2023/02/26 07:29:07;;;;;;;0.25;0.25;;;1.90;64.70;;;;;;5026264;28;20109;-60
2023/02/26 07:31:33;;;;;;;0.40;0.40;;;1.90;64.60;;;;;;5049270;28;20526;-60
2023/02/26 07:33:58;;;;;;;2.67;0.80;;;1.90;64.70;;;;;;5050921;28;20064;-60
2023/02/26 07:36:24;;;;;;;0.40;0.40;;;2.00;64.80;;;;;;5031706;28;20033;-60
2023/02/26 07:38:50;;;;;;;0.47;0.38;;;2.00;64.80;;;;;;5062356;28;20623;-60
2023/02/26 07:41:15;;;;;;;0.50;0.40;;;2.10;64.80;;;;;;5028966;28;20156;-60
2023/02/26 07:43:41;;;;;;;0.43;0.43;;;2.10;64.70;;;;;;5054116;28;20139;-60
2023/02/26 07:46:07;;;;;;;0.75;0.50;;;2.10;64.70;;;;;;5043496;28;20143;-60
2023/02/26 07:48:33;;;;;;;3.28;0.70;;;2.20;64.80;;;;;;5039784;28;20028;-60
2023/02/26 07:50:58;;;;;;;1.13;0.63;;;2.30;64.70;;;;;;5032952;28;20450;-61
2023/02/26 07:53:24;;;;;;;0.52;0.52;;;2.30;64.70;;;;;;5064815;28;20025;-60
2023/02/26 07:55:51;;;;;;;0.85;0.57;;;2.40;64.80;;;;;;5049853;28;20052;-61
2023/02/26 07:58:17;;;;;;;3.55;0.47;;;2.40;64.60;;;;;;5046827;28;20033;-61
2023/02/26 08:00:43;;;;;;;0.98;0.50;;;2.50;64.60;;;;;;5055185;28;20036;-60
2023/02/26 08:03:09;;;;;;;0.45;0.45;;;2.60;64.60;;;;;;5055951;28;20108;-60
2023/02/26 08:05:35;;;;;;;1.10;0.30;;;2.60;64.50;;;;;;5051791;28;20128;-59
2023/02/26 08:08:02;;;;;;;0.57;0.50;;;2.70;64.50;;;;;;5060823;28;20041;-59
2023/02/26 08:10:28;;;;;;;0.95;0.50;;;2.70;64.30;;;;;;5052141;28;20476;-63
2023/02/26 08:12:54;;;;;;;1.60;0.43;;;2.80;64.40;;;;;;5059316;28;20044;-60
2023/02/26 08:15:19;;;;;;;0.57;0.50;;;2.90;64.20;;;;;;5051143;28;20399;-62
2023/02/26 08:17:46;;;;;;;1.40;0.68;;;2.90;64.10;;;;;;5057699;28;20032;-62
2023/02/26 08:20:14;;;;;;;0.30;0.30;;;3.00;64.10;;;;;;5054135;28;20040;-62
2023/02/26 08:22:40;;;;;;;1.45;0.63;;;3.10;64.10;;;;;;5033068;28;20024;-62
2023/02/26 08:25:06;;;;;;;0.47;0.47;;;3.10;64.00;;;;;;5029482;28;20035;-63
2023/02/26 08:27:32;;;;;;;1.00;0.50;;;3.20;64.60;;;;;;5046859;28;20116;-62
2023/02/26 08:29:58;;;;;;;0.95;0.50;;;3.30;63.90;;;;;;5045313;28;20021;-62
2023/02/26 08:32:26;;;;;;;3.70;0.70;;;3.30;63.70;;;;;;5040107;28;20025;-63
2023/02/26 08:34:52;;;;;;;1.75;0.80;;;3.40;63.70;;;;;;5039035;28;20036;-63
2023/02/26 08:37:21;;;;;;;3.75;0.55;;;3.50;63.60;;;;;;5031077;28;20539;-63
2023/02/26 08:39:47;;;;;;;1.20;0.70;;;3.50;63.50;;;;;;5029188;28;20660;-63
2023/02/26 08:42:15;;;;;;;0.82;0.52;;;3.60;63.40;;;;;;5030649;28;20029;-63
2023/02/26 08:44:41;;;;;;;0.57;0.52;;;3.70;63.40;;;;;;5033356;28;20021;-61
2023/02/26 08:47:07;;;;;;;1.10;0.47;;;3.70;63.30;;;;;;5043299;28;20083;-60
2023/02/26 08:49:33;;;;;;;0.32;0.30;;;3.80;63.30;;;;;;5034564;28;20041;-61
2023/02/26 08:51:58;;;;;;;0.38;0.38;;;3.90;63.20;;;;;;5032335;28;20037;-61
2023/02/26 08:54:24;;;;;;;0.40;0.40;;;4.00;63.00;;;;;;5036645;28;20033;-61
2023/02/26 08:56:52;;;;;;;0.60;0.60;;;4.10;63.50;;;;;;5041719;28;20032;-64
2023/02/26 08:59:18;;;;;;;0.93;0.50;;;4.20;62.70;;;;;;5030742;28;20028;-64
2023/02/26 09:01:43;;;;;;;0.60;0.60;;;4.30;62.60;;;;;;5030842;28;20406;-64
2023/02/26 09:04:09;;;;;;;0.57;0.57;;;4.40;62.40;;;;;;5047852;28;20084;-59
2023/02/26 09:06:35;;;;;;;1.30;0.57;;;4.40;62.20;;;;;;5044856;28;20129;-60
2023/02/26 09:09:01;;;;;;;0.30;0.20;;;4.60;61.90;;;;;;5062762;28;20051;-59
2023/02/26 09:11:29;;;;;;;0.52;0.40;;;4.70;61.60;;;;;;5021972;28;20029;-60
2023/02/26 09:13:55;;;;;;;1.08;0.60;;;4.70;60.70;;;;;;5042594;28;20117;-60
2023/02/26 09:16:21;;;;;;;0.30;0.30;;;4.80;60.50;;;;;;5040536;28;20083;-59
2023/02/26 09:18:47;;;;;;;1.27;0.68;;;4.90;60.40;;;;;;5039399;28;20028;-60
2023/02/26 09:21:12;;;;;;;0.22;0.22;;;5.10;60.30;;;;;;5048813;28;20111;-59
2023/02/26 09:23:38;;;;;;;0.40;0.40;;;5.20;59.90;;;;;;5061076;28;20392;-60
2023/02/26 09:26:04;;;;;;;0.88;0.45;;;5.30;59.60;;;;;;5024933;28;20476;-59
2023/02/26 09:28:30;;;;;;;2.83;0.30;;;5.50;59.50;;;;;;5037450;28;20767;-60
2023/02/26 09:30:56;;;;;;;0.30;0.30;;;5.70;59.00;;;;;;5034451;28;20112;-60
2023/02/26 09:33:22;;;;;;;0.38;0.38;;;5.80;58.40;;;;;;5041766;28;20041;-60
2023/02/26 09:35:49;;;;;;;0.70;0.22;;;5.90;58.10;;;;;;5052764;28;20388;-59
2023/02/26 09:38:15;;;;;;;0.55;0.20;;;6.00;57.70;;;;;;5024685;28;20032;-60
2023/02/26 09:40:47;;;;;;;1.15;0.55;;;6.20;57.50;;;;;;5041510;28;20036;-60
2023/02/26 09:43:32;;;;;;;0.93;0.63;;;6.30;57.00;;;;;;5031008;28;20111;-59
2023/02/26 09:46:05;;;;;;;0.32;0.32;;;6.40;56.20;;;;;;5034145;28;20072;-63
2023/02/26 09:48:33;;;;;;;0.30;0.30;;;6.40;55.50;;;;;;5040717;28;20021;-64
2023/02/26 09:50:59;;;;;;;0.80;0.38;;;6.40;54.40;;;;;;5043675;28;20091;-64
2023/02/26 09:53:27;;;;;;;0.77;0.30;;;6.40;54.60;;;;;;5026531;28;20087;-64
2023/02/26 09:55:57;;;;;;;0.30;0.30;;;6.60;54.80;;;;;;5042112;28;20147;-63
2023/02/26 09:58:30;;;;;;;1.95;0.60;;;6.70;54.30;;;;;;5038524;28;20029;-64
2023/02/26 10:01:21;;;;;;;0.10;0.10;;;6.80;53.80;;;;;;5040909;28;20028;-60
2023/02/26 10:04:23;;;;;;;0.30;0.30;;;7.00;54.10;;;;;;5033313;28;20090;-62
2023/02/26 10:07:13;;;;;;;0.83;0.60;;;7.10;53.50;;;;;;5042409;28;20028;-62
2023/02/26 10:10:03;;;;;;;1.13;0.40;;;7.20;51.90;;;;;;5040305;28;20045;-61
2023/02/26 10:12:33;;;;;;;0.40;0.30;;;7.30;52.30;;;;;;5041285;28;20484;-60
2023/02/26 10:15:19;;;;;;;0.30;0.25;;;7.40;52.10;;;;;;5041069;28;20041;-61
2023/02/26 10:18:12;;;;;;;0.32;0.25;;;7.60;52.00;;;;;;5038540;28;20124;-61
2023/02/26 10:20:59;;;;;;;0.30;0.20;;;7.70;51.10;;;;;;5041322;28;20476;-62
2023/02/26 10:23:49;;;;;;;0.50;0.20;;;7.80;50.50;;;;;;5048318;28;20032;-61
2023/02/26 10:26:28;;;;;;;0.32;0.32;;;8.00;50.80;;;;;;5045221;28;20455;-62
2023/02/26 10:29:24;;;;;;;0.20;0.20;;;8.20;50.40;;;;;;5048732;28;20364;-61
2023/02/26 10:32:13;;;;;;;0.20;0.20;;;8.40;49.90;;;;;;5050038;28;20033;-65
2023/02/26 10:35:01;;;;;;;2.38;0.52;;;8.50;49.20;;;;;;5050593;28;20032;-65
2023/02/26 10:37:54;;;;;;;1.17;0.47;;;8.60;48.30;;;;;;5049413;28;20071;-60
2023/02/26 10:40:32;;;;;;;0.73;0.20;;;8.50;47.50;;;;;;5051912;28;20470;-63
2023/02/26 10:43:05;;;;;;;0.20;0.20;;;8.50;47.70;;;;;;5044795;28;20056;-64
2023/02/26 10:45:41;;;;;;;3.00;0.70;;;8.60;48.10;;;;;;5032022;28;20053;-63
2023/02/26 10:48:25;;;;;;;3.30;0.32;;;8.90;47.80;;;;;;5055803;28;20445;-63
2023/02/26 10:50:54;;;;;;;0.38;0.38;;;9.00;46.70;;;;;;5034547;28;20036;-64
2023/02/26 10:53:21;;;;;;;0.25;0.25;;;9.00;47.10;;;;;;5044706;28;20071;-65
2023/02/26 10:55:51;;;;;;;0.15;0.15;;;9.20;47.60;;;;;;5053320;28;20040;-64
2023/02/26 10:58:21;;;;;;;0.30;0.30;;;9.50;47.70;;;;;;5051176;28;20021;-64
2023/02/26 11:00:52;;;;;;;0.45;0.20;;;9.70;47.10;;;;;;5050120;28;20029;-64
2023/02/26 11:03:21;;;;;;;0.20;0.20;;;9.90;46.00;;;;;;5049226;28;20032;-64
2023/02/26 11:05:47;;;;;;;0.32;0.20;;;9.90;45.20;;;;;;5034049;28;20021;-64
2023/02/26 11:08:30;;;;;;;0.22;0.22;;;9.90;45.50;;;;;;5047004;28;20044;-63
2023/02/26 11:11:02;;;;;;;0.77;0.40;;;9.90;45.70;;;;;;5044585;28;20021;-65
2023/02/26 11:13:31;;;;;;;0.63;0.40;;;9.80;44.70;;;;;;5042377;28;20079;-64
2023/02/26 11:16:01;;;;;;;0.20;0.20;;;9.90;44.20;;;;;;5041823;28;20091;-64
2023/02/26 11:18:47;;;;;;;3.50;0.55;;;9.90;44.20;;;;;;5033107;28;20029;-65
2023/02/26 11:21:33;;;;;;;0.30;0.20;;;9.90;44.00;;;;;;5051987;28;20044;-65
2023/02/26 11:24:13;;;;;;;4.60;0.40;;;9.80;44.10;;;;;;5043172;28;20439;-64
2023/02/26 11:26:45;;;;;;;2.17;0.47;;;9.50;44.20;;;;;;5039568;28;20033;-61
2023/02/26 11:29:16;;;;;;;0.30;0.30;;;9.30;44.70;;;;;;5039173;28;20028;-60
2023/02/26 11:31:42;;;;;;;0.45;0.40;;;9.30;44.90;;;;;;5044834;28;20021;-61
2023/02/26 11:34:11;;;;;;;0.65;0.57;;;9.40;44.50;;;;;;5057494;28;20025;-61
2023/02/26 11:36:40;;;;;;;2.92;0.68;;;9.50;44.30;;;;;;5044109;28;20480;-60
2023/02/26 11:39:17;;;;;;;0.20;0.20;;;9.70;44.20;;;;;;5042699;28;20036;-60
2023/02/26 11:41:46;;;;;;;1.45;0.50;;;9.80;43.90;;;;;;5040043;28;20025;-59
2023/02/26 11:44:20;;;;;;;0.57;0.38;;;10.00;43.90;;;;;;5045691;28;20431;-61
2023/02/26 11:46:52;;;;;;;0.30;0.30;;;10.30;43.60;;;;;;5045494;28;20028;-61
2023/02/26 11:49:26;;;;;;;1.50;0.47;;;10.50;43.40;;;;;;5039442;28;20033;-66
2023/02/26 11:52:19;;;;;;;0.35;0.35;;;10.70;42.90;;;;;;5041915;28;20020;-66
2023/02/26 11:54:48;;;;;;;0.32;0.30;;;11.10;43.00;;;;;;5038224;28;20021;-66
2023/02/26 11:57:23;;;;;;;0.52;0.40;;;11.40;42.50;;;;;;5042573;28;20029;-65
2023/02/26 11:59:51;;;;;;;0.55;0.10;;;11.50;42.30;;;;;;5026700;28;20029;-65
2023/02/26 12:02:20;;;;;;;0.30;0.30;;;11.60;41.80;;;;;;5038744;28;20159;-61
2023/02/26 12:04:52;;;;;;;0.10;0.10;;;11.60;41.60;;;;;;5041785;28;22259;-62
2023/02/26 12:07:19;;;;;;;2.08;0.40;;;11.70;41.50;;;;;;5042888;28;20022;-59
2023/02/26 12:09:46;;;;;;;1.00;0.30;;;11.80;41.60;;;;;;5061309;28;20044;-63
2023/02/26 12:12:46;;;;;;;0.10;0.10;;;11.90;41.10;;;;;;5036863;28;20056;-63
2023/02/26 12:15:21;;;;;;;1.48;0.55;;;12.00;41.00;;;;;;5040148;28;20084;-62
2023/02/26 12:17:59;;;;;;;0.43;0.15;;;12.10;41.00;;;;;;5064279;28;20024;-63
2023/02/26 12:21:03;;;;;;;1.63;0.28;;;12.10;40.80;;;;;;5041701;28;20108;-62
2023/02/26 12:24:14;;;;;;;0.55;0.30;;;12.30;40.60;;;;;;5040157;28;20516;-62
2023/02/26 12:26:44;;;;;;;2.28;0.20;;;12.50;39.80;;;;;;5024081;28;20479;-62
2023/02/26 12:29:41;;;;;;;0.88;0.43;;;12.50;39.40;;;;;;5042594;28;20021;-61
2023/02/26 12:32:15;;;;;;;0.75;0.30;;;12.70;39.10;;;;;;5034943;28;20404;-64
2023/02/26 12:34:50;;;;;;;0.47;0.32;;;12.70;38.20;;;;;;5047122;28;20435;-64
2023/02/26 12:38:13;;;;;;;0.47;0.20;;;12.60;38.20;;;;;;5041515;28;20464;-64
2023/02/26 12:40:57;;;;;;;0.28;0.28;;;12.40;38.30;;;;;;4962104;28;20646;-63
2023/02/26 12:43:43;;;;;;;0.10;0.10;;;12.40;38.80;;;;;;4969432;28;20145;-63
2023/02/26 12:46:30;;;;;;;0.20;0.20;;;12.50;38.60;;;;;;5029141;28;20407;-64
2023/02/26 12:49:13;;;;;;;0.70;0.30;;;12.60;38.10;;;;;;5040287;28;20113;-64
2023/02/26 12:52:14;;;;;;;0.57;0.40;;;12.60;37.50;;;;;;5041870;28;20067;-64
2023/02/26 12:55:17;;;;;;;0.38;0.38;;;12.60;37.40;;;;;;5040657;28;20066;-64
2023/02/26 12:57:59;;;;;;;0.20;0.20;;;12.60;38.10;;;;;;5045283;28;20059;-64
2023/02/26 13:00:34;;;;;;;0.38;0.38;;;12.80;37.80;;;;;;5039328;28;20395;-64
2023/02/26 13:03:24;;;;;;;0.40;0.17;;;13.00;37.90;;;;;;5024389;28;20497;-64
2023/02/26 13:06:08;;;;;;;0.75;0.30;;;13.50;37.30;;;;;;5028621;28;20427;-60
2023/02/26 13:08:45;;;;;;;0.43;0.35;;;14.20;36.20;;;;;;5028375;28;20082;-60
2023/02/26 13:11:55;;;;;;;2.17;0.40;;;15.50;34.40;;;;;;5016943;28;20053;-60
2023/02/26 13:14:29;;;;;;;0.20;0.20;;;17.10;32.70;;;;;;4983192;28;20441;-61
2023/02/26 13:17:07;;;;;;;0.20;0.20;;;18.60;31.50;;;;;;5021290;28;20033;-64
2023/02/26 13:19:42;;;;;;;0.30;0.20;;;19.60;29.80;;;;;;5038400;28;20065;-63